Time;durP1;ratioP1;P1;durP2;ratioP2;P2;SDS_P1;SDS_P2;PMS_P1;PMS_P2;Temp;Humidity;BMP_temperature;BMP_pressure;BME280_temperature;BME280_humidity;BME280_pressure;Samples;Min_cycle;Max_cycle;Signal;HPM_P1;HPM_P2
2023/12/03 00:00:07;;;;;;;11.85;9.73;;;;;;;;;;5089577;28;20302;-73
2023/12/03 00:02:34;;;;;;;14.45;10.15;;;;;;;;;;5089797;28;20211;-73
2023/12/03 00:05:00;;;;;;;12.23;9.80;;;;;;;;;;5089572;28;20247;-73
2023/12/03 00:07:28;;;;;;;11.88;9.75;;;;;;;;;;5089661;28;20216;-73
2023/12/03 00:09:54;;;;;;;11.98;9.38;;;;;;;;;;5089390;28;20579;-73
2023/12/03 00:12:21;;;;;;;13.18;9.93;;;;;;;;;;5089779;28;20298;-72
2023/12/03 00:14:47;;;;;;;11.75;9.68;;;;;;;;;;5089411;28;20220;-73
2023/12/03 00:17:14;;;;;;;12.25;9.40;;;;;;;;;;5089616;28;20196;-73
2023/12/03 00:19:41;;;;;;;15.38;10.63;;;;;;;;;;5089503;28;20235;-72
2023/12/03 00:22:07;;;;;;;11.70;9.95;;;;;;;;;;5089098;28;20204;-72
2023/12/03 00:24:33;;;;;;;11.75;9.73;;;;;;;;;;5089702;28;20215;-72
2023/12/03 00:27:00;;;;;;;14.82;10.55;;;;;;;;;;5089520;28;20639;-72
2023/12/03 00:29:26;;;;;;;11.32;9.50;;;;;;;;;;5089317;28;20208;-72
2023/12/03 00:31:53;;;;;;;11.05;9.82;;;;;;;;;;5089049;28;20726;-72
2023/12/03 00:34:20;;;;;;;12.10;9.55;;;;;;;;;;5089116;28;20196;-72
2023/12/03 00:36:47;;;;;;;10.57;8.93;;;;;;;;;;5089008;28;20210;-72
2023/12/03 00:39:14;;;;;;;13.27;9.88;;;;;;;;;;5089021;28;20749;-72
2023/12/03 00:41:40;;;;;;;10.90;9.15;;;;;;;;;;5089953;28;20261;-72
2023/12/03 00:44:06;;;;;;;11.93;9.52;;;;;;;;;;5089314;28;20257;-72
2023/12/03 00:46:32;;;;;;;16.52;10.35;;;;;;;;;;5089334;28;20299;-72
2023/12/03 00:48:59;;;;;;;10.52;8.63;;;;;;;;;;5088868;28;20220;-72
2023/12/03 00:51:26;;;;;;;10.65;9.23;;;;;;;;;;5088622;28;20602;-72
2023/12/03 00:53:53;;;;;;;12.18;8.60;;;;;;;;;;5089506;28;20200;-73
2023/12/03 00:56:19;;;;;;;11.00;8.88;;;;;;;;;;5092601;28;20281;-73
2023/12/03 00:58:45;;;;;;;10.13;8.90;;;;;;;;;;5093284;28;20211;-73
2023/12/03 01:01:11;;;;;;;9.32;8.27;;;;;;;;;;5092492;28;20219;-73
2023/12/03 01:03:37;;;;;;;9.63;8.18;;;;;;;;;;5088340;28;20276;-72
2023/12/03 01:06:04;;;;;;;10.35;9.13;;;;;;;;;;5091957;28;20219;-73
2023/12/03 01:08:31;;;;;;;10.18;8.65;;;;;;;;;;5093042;28;20196;-73
2023/12/03 01:10:58;;;;;;;11.98;9.63;;;;;;;;;;5092618;28;20207;-72
2023/12/03 01:13:24;;;;;;;10.30;9.15;;;;;;;;;;5092783;28;20682;-72
2023/12/03 01:15:50;;;;;;;10.52;8.82;;;;;;;;;;5092757;28;20220;-73
2023/12/03 01:18:16;;;;;;;12.60;9.90;;;;;;;;;;5092660;28;20196;-72
2023/12/03 01:20:43;;;;;;;12.23;9.48;;;;;;;;;;5092479;28;20231;-72
2023/12/03 01:23:09;;;;;;;12.38;9.82;;;;;;;;;;5092585;28;20277;-73
2023/12/03 01:25:36;;;;;;;11.18;9.52;;;;;;;;;;5092903;28;20223;-72
2023/12/03 01:28:03;;;;;;;11.23;9.73;;;;;;;;;;5092133;28;20316;-73
2023/12/03 01:30:29;;;;;;;10.73;9.40;;;;;;;;;;5095053;28;20241;-73
2023/12/03 01:32:55;;;;;;;11.65;9.15;;;;;;;;;;5096063;28;20257;-71
2023/12/03 01:35:21;;;;;;;12.43;10.23;;;;;;;;;;5108207;28;20215;-73
2023/12/03 01:37:48;;;;;;;14.20;11.02;;;;;;;;;;5109134;28;20261;-72
2023/12/03 01:40:14;;;;;;;11.13;9.98;;;;;;;;;;5109211;28;20220;-72
2023/12/03 01:42:41;;;;;;;14.20;10.60;;;;;;;;;;5108989;28;20212;-73
2023/12/03 01:45:08;;;;;;;14.77;10.82;;;;;;;;;;5109350;28;20227;-73
2023/12/03 01:47:35;;;;;;;13.57;10.55;;;;;;;;;;5105319;28;20641;-72
2023/12/03 01:50:07;;;;;;;12.73;10.43;;;;;;;;;;5106875;28;20196;-72
2023/12/03 01:52:34;;;;;;;12.88;10.23;;;;;;;;;;5105473;28;20230;-72
2023/12/03 01:55:01;;;;;;;16.13;11.75;;;;;;;;;;5103449;28;20265;-73
2023/12/03 01:57:27;;;;;;;15.00;11.77;;;;;;;;;;5084503;28;20200;-72
2023/12/03 01:59:55;;;;;;;17.85;13.07;;;;;;;;;;5100970;28;20293;-72
2023/12/03 02:02:21;;;;;;;13.68;11.07;;;;;;;;;;5094217;28;20567;-72
2023/12/03 02:04:48;;;;;;;14.85;11.02;;;;;;;;;;5094899;28;20324;-72
2023/12/03 02:07:14;;;;;;;14.10;10.35;;;;;;;;;;5094268;28;20348;-73
2023/12/03 02:09:41;;;;;;;12.73;10.07;;;;;;;;;;5092239;28;20283;-73
2023/12/03 02:12:08;;;;;;;12.05;9.65;;;;;;;;;;5091467;28;20276;-72
2023/12/03 02:14:34;;;;;;;13.10;9.77;;;;;;;;;;5092012;28;20224;-72
2023/12/03 02:17:02;;;;;;;11.20;8.25;;;;;;;;;;5092545;28;20245;-72
2023/12/03 02:19:28;;;;;;;9.13;7.63;;;;;;;;;;5060156;28;20196;-72
2023/12/03 02:21:55;;;;;;;8.48;7.60;;;;;;;;;;5091852;28;20218;-72
2023/12/03 02:24:22;;;;;;;11.02;7.32;;;;;;;;;;5091508;28;20204;-72
2023/12/03 02:26:49;;;;;;;9.15;7.90;;;;;;;;;;5091674;28;20199;-72
2023/12/03 02:29:15;;;;;;;9.07;8.18;;;;;;;;;;5091165;28;20345;-72
2023/12/03 02:31:41;;;;;;;10.23;7.63;;;;;;;;;;5091525;28;20207;-72
2023/12/03 02:34:09;;;;;;;10.05;8.02;;;;;;;;;;5091517;28;20200;-72
2023/12/03 02:36:35;;;;;;;9.63;8.27;;;;;;;;;;5091895;28;20220;-73
2023/12/03 02:39:01;;;;;;;8.98;8.02;;;;;;;;;;5091590;28;20204;-73
2023/12/03 02:41:29;;;;;;;8.90;8.00;;;;;;;;;;5090797;28;20245;-73
2023/12/03 02:43:56;;;;;;;7.88;7.18;;;;;;;;;;5090726;28;20204;-73
2023/12/03 02:46:22;;;;;;;8.25;7.40;;;;;;;;;;5091199;28;20699;-72
2023/12/03 02:48:48;;;;;;;9.05;8.00;;;;;;;;;;5092471;28;20231;-72
2023/12/03 02:51:14;;;;;;;9.02;7.82;;;;;;;;;;5093056;28;20200;-73
2023/12/03 02:53:43;;;;;;;7.47;6.78;;;;;;;;;;5093423;28;20320;-73
2023/12/03 02:56:09;;;;;;;8.07;7.05;;;;;;;;;;5092671;28;20219;-72
2023/12/03 02:58:37;;;;;;;10.10;7.40;;;;;;;;;;5092372;28;20200;-72
2023/12/03 03:01:03;;;;;;;8.82;6.57;;;;;;;;;;5091806;28;20227;-72
2023/12/03 03:03:29;;;;;;;8.40;7.47;;;;;;;;;;5091004;28;20256;-72
2023/12/03 03:05:55;;;;;;;8.35;7.10;;;;;;;;;;5090997;28;20269;-72
2023/12/03 03:08:22;;;;;;;7.72;7.03;;;;;;;;;;5090345;28;20199;-72
2023/12/03 03:10:48;;;;;;;7.85;7.03;;;;;;;;;;5090073;28;20593;-72
2023/12/03 03:13:14;;;;;;;7.88;7.05;;;;;;;;;;5090473;28;20270;-73
2023/12/03 03:15:42;;;;;;;7.40;6.70;;;;;;;;;;5090280;28;20223;-73
2023/12/03 03:18:08;;;;;;;8.05;6.32;;;;;;;;;;5089899;28;20203;-73
2023/12/03 03:20:35;;;;;;;7.80;6.85;;;;;;;;;;5090207;28;20215;-73
2023/12/03 03:23:01;;;;;;;7.03;6.20;;;;;;;;;;5090041;28;20557;-73
2023/12/03 03:25:27;;;;;;;6.22;5.63;;;;;;;;;;5090485;28;20211;-72
2023/12/03 03:27:53;;;;;;;9.52;6.88;;;;;;;;;;5089675;28;20200;-73
2023/12/03 03:30:20;;;;;;;6.80;6.15;;;;;;;;;;5089848;28;20196;-73
2023/12/03 03:32:47;;;;;;;6.78;6.18;;;;;;;;;;5089911;28;20211;-72
2023/12/03 03:35:13;;;;;;;6.18;5.57;;;;;;;;;;5089562;28;20276;-72
2023/12/03 03:37:40;;;;;;;7.70;6.88;;;;;;;;;;5090087;28;20294;-73
2023/12/03 03:40:07;;;;;;;8.38;6.93;;;;;;;;;;5089796;28;20247;-72
2023/12/03 03:42:33;;;;;;;7.50;6.80;;;;;;;;;;5090113;28;20294;-72
2023/12/03 03:44:59;;;;;;;9.00;7.35;;;;;;;;;;5090223;28;20249;-72
2023/12/03 03:47:26;;;;;;;7.90;7.10;;;;;;;;;;5089980;28;20203;-72
2023/12/03 03:49:53;;;;;;;9.63;7.68;;;;;;;;;;5090087;28;20239;-73
2023/12/03 03:52:19;;;;;;;10.65;7.05;;;;;;;;;;5089688;28;20241;-73
2023/12/03 03:54:46;;;;;;;7.07;6.45;;;;;;;;;;5089648;28;20270;-73
2023/12/03 03:57:12;;;;;;;8.15;7.35;;;;;;;;;;5089813;28;20253;-73
2023/12/03 03:59:38;;;;;;;7.97;7.20;;;;;;;;;;5056784;28;20207;-72
2023/12/03 04:02:05;;;;;;;7.70;6.90;;;;;;;;;;5089995;28;20223;-72
2023/12/03 04:04:31;;;;;;;7.35;6.63;;;;;;;;;;5089312;28;20681;-72
2023/12/03 04:06:59;;;;;;;7.43;6.72;;;;;;;;;;5089580;28;20264;-71
2023/12/03 04:09:25;;;;;;;7.72;6.95;;;;;;;;;;5089260;28;20191;-72
2023/12/03 04:11:51;;;;;;;8.32;6.95;;;;;;;;;;5089699;28;20269;-73
2023/12/03 04:14:18;;;;;;;6.97;6.28;;;;;;;;;;5089817;28;20229;-73
2023/12/03 04:16:44;;;;;;;8.25;7.38;;;;;;;;;;5089506;28;20226;-72
2023/12/03 04:19:11;;;;;;;7.88;6.88;;;;;;;;;;5089279;28;20667;-73
2023/12/03 04:21:38;;;;;;;7.47;6.68;;;;;;;;;;5088818;28;20625;-72
2023/12/03 04:24:06;;;;;;;7.85;7.05;;;;;;;;;;5089321;28;20207;-72
2023/12/03 04:26:32;;;;;;;7.88;7.05;;;;;;;;;;5089192;28;20290;-72
2023/12/03 04:28:58;;;;;;;8.23;7.40;;;;;;;;;;5090663;28;20206;-72
2023/12/03 04:31:26;;;;;;;10.90;8.07;;;;;;;;;;5092889;28;20283;-73
2023/12/03 04:33:53;;;;;;;9.75;6.68;;;;;;;;;;5094125;28;20759;-72
2023/12/03 04:36:19;;;;;;;9.85;8.07;;;;;;;;;;5096481;28;20264;-73
2023/12/03 04:38:45;;;;;;;13.13;8.52;;;;;;;;;;5095931;28;20226;-73
2023/12/03 04:41:13;;;;;;;9.10;7.03;;;;;;;;;;5092899;28;20281;-73
2023/12/03 04:43:39;;;;;;;11.43;8.30;;;;;;;;;;5093067;28;20195;-73
2023/12/03 04:46:06;;;;;;;15.95;9.15;;;;;;;;;;5093101;28;20295;-73
2023/12/03 04:48:32;;;;;;;8.80;7.85;;;;;;;;;;5092765;28;20200;-73
2023/12/03 04:50:58;;;;;;;14.65;8.30;;;;;;;;;;5092981;28;20261;-73
2023/12/03 04:53:24;;;;;;;9.20;7.93;;;;;;;;;;5093193;28;20207;-73
2023/12/03 04:55:51;;;;;;;12.07;8.63;;;;;;;;;;5093184;28;20250;-74
2023/12/03 04:58:18;;;;;;;10.57;8.38;;;;;;;;;;5092778;28;20203;-73
2023/12/03 05:00:45;;;;;;;13.13;8.32;;;;;;;;;;5076553;28;20208;-73
2023/12/03 05:03:11;;;;;;;13.85;8.93;;;;;;;;;;5092713;28;20323;-73
2023/12/03 05:05:37;;;;;;;13.48;9.07;;;;;;;;;;5092638;28;20239;-72
2023/12/03 05:08:04;;;;;;;13.10;9.15;;;;;;;;;;5092487;28;20200;-72
2023/12/03 05:10:30;;;;;;;13.98;9.55;;;;;;;;;;5092315;28;20211;-73
2023/12/03 05:12:56;;;;;;;13.10;8.93;;;;;;;;;;5093102;28;20257;-72
2023/12/03 05:15:24;;;;;;;15.52;9.20;;;;;;;;;;5092069;28;20641;-73
2023/12/03 05:17:50;;;;;;;10.23;8.10;;;;;;;;;;5092347;28;20203;-73
2023/12/03 05:20:16;;;;;;;8.13;7.18;;;;;;;;;;5092265;28;20207;-73
2023/12/03 05:22:42;;;;;;;10.18;7.68;;;;;;;;;;5092408;28;20257;-73
2023/12/03 05:25:10;;;;;;;11.07;8.65;;;;;;;;;;5092541;28;20220;-73
2023/12/03 05:27:37;;;;;;;9.88;8.48;;;;;;;;;;5091971;28;20478;-73
2023/12/03 05:30:04;;;;;;;8.35;7.05;;;;;;;;;;5091942;28;20307;-73
2023/12/03 05:32:31;;;;;;;9.00;7.50;;;;;;;;;;5091885;28;20675;-74
2023/12/03 05:34:57;;;;;;;8.27;7.47;;;;;;;;;;5091725;28;20227;-73
2023/12/03 05:37:28;;;;;;;10.10;8.05;;;;;;;;;;5092040;28;20200;-73
2023/12/03 05:39:54;;;;;;;7.78;7.07;;;;;;;;;;5091365;28;20521;-74
2023/12/03 05:42:21;;;;;;;9.00;7.68;;;;;;;;;;5091510;28;20234;-73
2023/12/03 05:44:48;;;;;;;8.50;7.60;;;;;;;;;;5075487;28;20298;-73
2023/12/03 05:47:15;;;;;;;9.43;7.90;;;;;;;;;;5091751;28;20203;-73
2023/12/03 05:49:43;;;;;;;9.45;8.20;;;;;;;;;;5091448;28;20208;-73
2023/12/03 05:52:09;;;;;;;10.45;8.05;;;;;;;;;;5091396;28;20187;-73
2023/12/03 05:54:35;;;;;;;10.77;7.82;;;;;;;;;;5091085;28;20310;-73
2023/12/03 05:57:01;;;;;;;10.65;8.85;;;;;;;;;;5090977;28;20257;-74
2023/12/03 05:59:28;;;;;;;10.30;8.43;;;;;;;;;;5091131;28;20241;-74
2023/12/03 06:01:54;;;;;;;10.93;8.10;;;;;;;;;;5091036;28;20376;-73
2023/12/03 06:04:20;;;;;;;9.25;8.00;;;;;;;;;;5091094;28;20211;-74
2023/12/03 06:06:48;;;;;;;8.30;7.50;;;;;;;;;;5090651;28;20207;-74
2023/12/03 06:09:14;;;;;;;9.43;8.10;;;;;;;;;;5091449;28;20204;-73
2023/12/03 06:11:40;;;;;;;9.02;8.13;;;;;;;;;;5090829;28;20196;-73
2023/12/03 06:14:07;;;;;;;9.35;8.10;;;;;;;;;;5091446;28;20567;-73
2023/12/03 06:16:33;;;;;;;9.77;7.85;;;;;;;;;;5091121;28;20281;-74
2023/12/03 06:18:59;;;;;;;10.30;8.27;;;;;;;;;;5091312;28;20208;-75
2023/12/03 06:21:25;;;;;;;9.02;7.95;;;;;;;;;;5090925;28;20277;-74
2023/12/03 06:23:53;;;;;;;9.68;8.68;;;;;;;;;;5091419;28;20679;-74
2023/12/03 06:26:20;;;;;;;11.27;8.45;;;;;;;;;;5091430;28;20219;-73
2023/12/03 06:28:46;;;;;;;9.48;8.15;;;;;;;;;;5091056;28;20584;-74
2023/12/03 06:31:13;;;;;;;11.15;8.75;;;;;;;;;;5091234;28;20199;-75
2023/12/03 06:33:39;;;;;;;10.55;8.63;;;;;;;;;;5091524;28;20336;-73
2023/12/03 06:36:05;;;;;;;9.95;8.40;;;;;;;;;;5091400;28;20219;-59
2023/12/03 06:38:31;;;;;;;10.07;8.88;;;;;;;;;;5091629;28;20655;-59
2023/12/03 06:40:59;;;;;;;11.13;9.20;;;;;;;;;;5092398;28;20265;-60
2023/12/03 06:43:25;;;;;;;10.43;8.35;;;;;;;;;;5091856;28;20196;-59
2023/12/03 06:45:51;;;;;;;10.57;8.48;;;;;;;;;;5092273;28;20578;-60
2023/12/03 06:48:18;;;;;;;10.68;8.50;;;;;;;;;;5092215;28;20599;-60
2023/12/03 06:50:44;;;;;;;10.27;8.70;;;;;;;;;;5092656;28;20411;-59
2023/12/03 06:53:10;;;;;;;11.13;9.15;;;;;;;;;;5091572;28;20208;-59
2023/12/03 06:55:36;;;;;;;10.15;7.93;;;;;;;;;;5092582;28;20284;-59
2023/12/03 06:58:04;;;;;;;10.15;8.35;;;;;;;;;;5092995;28;20245;-60
2023/12/03 07:00:30;;;;;;;13.15;9.60;;;;;;;;;;5092583;28;20253;-59
2023/12/03 07:02:58;;;;;;;11.05;8.77;;;;;;;;;;5092868;28;20323;-60
2023/12/03 07:05:24;;;;;;;12.35;9.30;;;;;;;;;;5092464;28;20303;-59
2023/12/03 07:07:51;;;;;;;12.80;9.40;;;;;;;;;;5091796;28;20411;-60
2023/12/03 07:10:17;;;;;;;10.23;9.13;;;;;;;;;;5092480;28;20199;-59
2023/12/03 07:12:44;;;;;;;13.88;9.65;;;;;;;;;;5092323;28;20269;-59
2023/12/03 07:15:11;;;;;;;10.35;8.32;;;;;;;;;;5091876;28;20212;-60
2023/12/03 07:17:39;;;;;;;10.55;8.60;;;;;;;;;;5092293;28;20676;-59
2023/12/03 07:20:06;;;;;;;11.27;8.98;;;;;;;;;;5092652;28;20619;-59
2023/12/03 07:22:32;;;;;;;11.55;8.90;;;;;;;;;;5092025;28;20224;-60
2023/12/03 07:24:59;;;;;;;11.15;8.57;;;;;;;;;;5092296;28;20297;-58
2023/12/03 07:27:25;;;;;;;12.95;8.98;;;;;;;;;;5092531;28;20273;-60
2023/12/03 07:29:52;;;;;;;10.00;8.23;;;;;;;;;;5092217;28;20200;-59
2023/12/03 07:32:20;;;;;;;11.32;8.95;;;;;;;;;;5093162;28;20192;-60
2023/12/03 07:34:46;;;;;;;12.45;9.35;;;;;;;;;;5093304;28;20215;-60
2023/12/03 07:37:12;;;;;;;11.63;9.15;;;;;;;;;;5093684;28;20245;-59
2023/12/03 07:39:39;;;;;;;12.30;9.38;;;;;;;;;;5091939;28;20227;-59
2023/12/03 07:42:06;;;;;;;12.38;9.25;;;;;;;;;;5092031;28;20279;-61
2023/12/03 07:44:32;;;;;;;10.80;8.88;;;;;;;;;;5091651;28;20200;-59
2023/12/03 07:46:58;;;;;;;12.57;9.10;;;;;;;;;;5091270;28;20271;-59
2023/12/03 07:49:26;;;;;;;12.13;8.88;;;;;;;;;;5091452;28;20196;-60
2023/12/03 07:51:52;;;;;;;12.90;10.60;;;;;;;;;;5091290;28;20231;-59
2023/12/03 07:54:19;;;;;;;13.40;10.25;;;;;;;;;;5090628;28;20191;-59
2023/12/03 07:56:45;;;;;;;14.27;11.30;;;;;;;;;;5091684;28;20203;-60
2023/12/03 07:59:11;;;;;;;15.00;11.07;;;;;;;;;;5090868;28;20191;-60
2023/12/03 08:01:38;;;;;;;17.40;12.63;;;;;;;;;;5090593;28;20212;-59
2023/12/03 08:04:04;;;;;;;17.75;12.35;;;;;;;;;;5090603;28;20617;-60
2023/12/03 08:06:32;;;;;;;18.33;11.90;;;;;;;;;;5090802;28;20323;-59
2023/12/03 08:08:59;;;;;;;17.30;12.60;;;;;;;;;;5090910;28;20199;-59
2023/12/03 08:11:25;;;;;;;19.20;11.95;;;;;;;;;;5090744;28;20720;-60
2023/12/03 08:13:53;;;;;;;18.67;11.88;;;;;;;;;;5091129;28;20208;-59
2023/12/03 08:16:19;;;;;;;16.92;12.27;;;;;;;;;;5090978;28;20249;-59
2023/12/03 08:18:45;;;;;;;15.27;11.27;;;;;;;;;;5090996;28;20597;-59
2023/12/03 08:21:12;;;;;;;17.02;11.73;;;;;;;;;;5090919;28;20325;-58
2023/12/03 08:23:40;;;;;;;16.33;11.98;;;;;;;;;;5091044;28;20200;-60
2023/12/03 08:26:06;;;;;;;15.15;11.90;;;;;;;;;;5091915;28;20251;-60
2023/12/03 08:28:33;;;;;;;16.40;12.45;;;;;;;;;;5091349;28;20204;-61
2023/12/03 08:31:00;;;;;;;18.00;13.13;;;;;;;;;;5091212;28;20227;-59
2023/12/03 08:33:26;;;;;;;17.33;13.25;;;;;;;;;;5091118;28;20187;-60
2023/12/03 08:35:52;;;;;;;17.02;12.35;;;;;;;;;;5091513;28;20220;-59
2023/12/03 08:38:19;;;;;;;17.27;12.10;;;;;;;;;;5091555;28;20204;-59
2023/12/03 08:40:47;;;;;;;16.05;11.27;;;;;;;;;;5090739;28;20260;-59
2023/12/03 08:43:15;;;;;;;17.13;12.32;;;;;;;;;;5091293;28;20243;-60
2023/12/03 08:45:41;;;;;;;17.92;12.13;;;;;;;;;;5091239;28;20649;-59
2023/12/03 08:48:08;;;;;;;17.48;12.63;;;;;;;;;;5090606;28;20532;-59
2023/12/03 08:50:34;;;;;;;16.60;12.55;;;;;;;;;;5090054;28;20272;-59
2023/12/03 08:53:00;;;;;;;16.95;12.95;;;;;;;;;;5090313;28;20208;-60
2023/12/03 08:55:26;;;;;;;14.55;11.95;;;;;;;;;;5090158;28;20296;-60
2023/12/03 08:57:55;;;;;;;16.85;11.30;;;;;;;;;;5090366;28;20314;-59
2023/12/03 09:00:22;;;;;;;18.15;12.45;;;;;;;;;;5090267;28;20249;-60
2023/12/03 09:02:48;;;;;;;16.98;12.27;;;;;;;;;;5090240;28;20219;-61
2023/12/03 09:05:14;;;;;;;18.00;12.05;;;;;;;;;;5089703;28;20278;-59
2023/12/03 09:07:41;;;;;;;14.85;11.35;;;;;;;;;;5089744;28;20208;-61
2023/12/03 09:10:08;;;;;;;17.08;12.43;;;;;;;;;;5057046;28;20196;-59
2023/12/03 09:12:34;;;;;;;17.42;13.20;;;;;;;;;;5089897;28;20223;-61
2023/12/03 09:15:01;;;;;;;19.80;13.30;;;;;;;;;;5089677;28;20242;-60
2023/12/03 09:17:28;;;;;;;20.45;13.38;;;;;;;;;;5093858;28;20204;-59
2023/12/03 09:19:55;;;;;;;20.75;14.80;;;;;;;;;;5093226;28;20526;-60
2023/12/03 09:22:21;;;;;;;19.02;13.45;;;;;;;;;;5093447;28;20227;-65
2023/12/03 09:24:48;;;;;;;17.38;13.10;;;;;;;;;;5092974;28;20306;-60
2023/12/03 09:27:15;;;;;;;16.73;12.38;;;;;;;;;;5093183;28;20207;-59
2023/12/03 09:29:41;;;;;;;19.00;12.88;;;;;;;;;;5093167;28;20215;-61
2023/12/03 09:32:08;;;;;;;19.35;14.07;;;;;;;;;;5093032;28;20196;-60
2023/12/03 09:34:35;;;;;;;16.40;12.68;;;;;;;;;;5092985;28;20227;-60
2023/12/03 09:37:02;;;;;;;21.10;13.60;;;;;;;;;;5093429;28;20223;-61
2023/12/03 09:39:28;;;;;;;16.13;12.27;;;;;;;;;;5092794;28;20599;-59
2023/12/03 09:41:55;;;;;;;19.25;13.40;;;;;;;;;;5092392;28;20315;-59
2023/12/03 09:44:27;;;;;;;16.92;11.90;;;;;;;;;;5092735;28;20207;-59
2023/12/03 09:46:54;;;;;;;17.65;12.73;;;;;;;;;;5092475;28;20196;-60
2023/12/03 09:49:22;;;;;;;18.08;13.27;;;;;;;;;;5092703;28;20207;-60
2023/12/03 09:51:49;;;;;;;22.65;13.25;;;;;;;;;;5092445;28;20334;-60
2023/12/03 09:54:15;;;;;;;17.77;12.63;;;;;;;;;;5092865;28;20295;-60
2023/12/03 09:56:44;;;;;;;16.95;12.75;;;;;;;;;;5092646;28;20196;-60
2023/12/03 09:59:10;;;;;;;18.10;13.18;;;;;;;;;;5087541;28;20543;-61
2023/12/03 10:01:38;;;;;;;14.85;11.90;;;;;;;;;;5092720;28;20219;-60
2023/12/03 10:04:04;;;;;;;16.85;12.13;;;;;;;;;;5092383;28;20230;-60
2023/12/03 10:06:34;;;;;;;17.58;12.77;;;;;;;;;;5092761;28;20220;-59
2023/12/03 10:09:02;;;;;;;17.35;12.98;;;;;;;;;;5092340;28;20643;-60
2023/12/03 10:11:29;;;;;;;15.23;12.27;;;;;;;;;;5092405;28;20202;-60
2023/12/03 10:13:56;;;;;;;20.92;13.93;;;;;;;;;;5091756;28;20211;-59
2023/12/03 10:16:23;;;;;;;16.98;12.75;;;;;;;;;;5092635;28;20219;-60
2023/12/03 10:18:49;;;;;;;18.20;12.95;;;;;;;;;;5092440;28;20233;-60
2023/12/03 10:21:16;;;;;;;20.63;13.80;;;;;;;;;;5092291;28;20207;-59
2023/12/03 10:23:56;;;;;;;18.13;13.27;;;;;;;;;;5092411;28;20211;-59
2023/12/03 10:26:22;;;;;;;21.42;13.60;;;;;;;;;;5079454;28;20219;-61
2023/12/03 10:28:48;;;;;;;21.40;15.40;;;;;;;;;;5093902;28;20207;-60
2023/12/03 10:31:15;;;;;;;19.58;14.35;;;;;;;;;;5060642;28;20196;-60
2023/12/03 10:33:43;;;;;;;20.67;14.52;;;;;;;;;;5093063;28;20257;-59
2023/12/03 10:36:10;;;;;;;22.52;14.50;;;;;;;;;;5093049;28;20313;-59
2023/12/03 10:38:37;;;;;;;17.88;11.73;;;;;;;;;;5092661;28;20203;-59
2023/12/03 10:41:05;;;;;;;14.60;11.27;;;;;;;;;;5092460;28;20294;-59
2023/12/03 10:43:34;;;;;;;16.85;12.02;;;;;;;;;;5092691;28;20219;-60
2023/12/03 10:46:00;;;;;;;18.85;13.00;;;;;;;;;;5092038;28;20261;-60
2023/12/03 10:48:30;;;;;;;20.13;13.52;;;;;;;;;;5092000;28;20728;-58
2023/12/03 10:50:59;;;;;;;16.75;12.13;;;;;;;;;;5092255;28;20249;-59
2023/12/03 10:53:26;;;;;;;21.45;13.02;;;;;;;;;;5092355;28;20576;-59
2023/12/03 10:55:52;;;;;;;16.33;11.40;;;;;;;;;;5092115;28;20304;-59
2023/12/03 10:58:20;;;;;;;14.82;11.40;;;;;;;;;;5091966;28;20203;-61
2023/12/03 11:00:51;;;;;;;15.18;11.02;;;;;;;;;;5091555;28;20280;-61
2023/12/03 11:03:23;;;;;;;12.82;11.00;;;;;;;;;;5075822;28;20290;-61
2023/12/03 11:05:52;;;;;;;20.77;11.98;;;;;;;;;;5091611;28;20226;-61
2023/12/03 11:08:19;;;;;;;14.13;11.18;;;;;;;;;;5075580;28;20275;-59
2023/12/03 11:10:45;;;;;;;14.65;11.55;;;;;;;;;;5092206;28;20252;-60
2023/12/03 11:13:12;;;;;;;14.77;11.45;;;;;;;;;;5092239;28;20592;-62
2023/12/03 11:15:39;;;;;;;17.05;12.18;;;;;;;;;;5094852;28;20216;-61
2023/12/03 11:18:07;;;;;;;16.77;12.10;;;;;;;;;;5095921;28;20256;-61
2023/12/03 11:20:35;;;;;;;15.32;10.77;;;;;;;;;;5096058;28;20644;-61
2023/12/03 11:23:08;;;;;;;16.38;11.13;;;;;;;;;;5095707;28;20285;-61
2023/12/03 11:25:35;;;;;;;13.40;10.82;;;;;;;;;;5097248;28;20231;-61
2023/12/03 11:28:02;;;;;;;13.75;10.85;;;;;;;;;;5095834;28;20269;-60
2023/12/03 11:30:48;;;;;;;14.80;11.27;;;;;;;;;;5095134;28;20683;-61
2023/12/03 11:33:16;;;;;;;13.00;10.63;;;;;;;;;;5095014;28;20424;-61
2023/12/03 11:35:43;;;;;;;14.15;10.88;;;;;;;;;;5096634;28;20247;-61
2023/12/03 11:38:09;;;;;;;15.52;12.25;;;;;;;;;;5096547;28;20287;-61
2023/12/03 11:40:35;;;;;;;13.05;10.35;;;;;;;;;;5096074;28;20238;-60
2023/12/03 11:43:03;;;;;;;11.27;9.40;;;;;;;;;;5094527;28;20682;-61
2023/12/03 11:45:29;;;;;;;10.48;9.38;;;;;;;;;;5094528;28;20273;-61
2023/12/03 11:48:09;;;;;;;9.13;7.90;;;;;;;;;;5095073;28;20205;-60
2023/12/03 11:50:37;;;;;;;9.93;8.48;;;;;;;;;;5096435;28;20200;-60
2023/12/03 11:53:04;;;;;;;9.77;8.18;;;;;;;;;;5097244;28;20777;-60
2023/12/03 11:55:32;;;;;;;9.88;8.73;;;;;;;;;;5096471;28;20247;-61
2023/12/03 11:57:59;;;;;;;9.88;8.82;;;;;;;;;;5095726;28;20273;-61
2023/12/03 12:00:25;;;;;;;10.25;9.05;;;;;;;;;;5095669;28;20210;-61
2023/12/03 12:02:52;;;;;;;12.57;8.63;;;;;;;;;;5096035;28;20215;-60
2023/12/03 12:05:18;;;;;;;10.82;9.70;;;;;;;;;;5095475;28;20325;-61
2023/12/03 12:07:55;;;;;;;12.05;9.00;;;;;;;;;;5096776;28;20224;-61
2023/12/03 12:10:21;;;;;;;20.38;10.93;;;;;;;;;;5095307;28;20268;-61
2023/12/03 12:12:48;;;;;;;9.70;8.80;;;;;;;;;;5094778;28;20207;-60
2023/12/03 12:15:14;;;;;;;10.75;9.52;;;;;;;;;;5096047;28;20292;-60
2023/12/03 12:17:41;;;;;;;10.60;9.35;;;;;;;;;;5095100;28;20671;-61
2023/12/03 12:20:09;;;;;;;11.75;9.73;;;;;;;;;;5093791;28;20648;-60
2023/12/03 12:22:35;;;;;;;10.45;9.13;;;;;;;;;;5092688;28;20207;-60
2023/12/03 12:25:03;;;;;;;12.18;9.80;;;;;;;;;;5090733;28;20238;-60
2023/12/03 12:27:29;;;;;;;11.98;9.80;;;;;;;;;;5090465;28;21298;-62
2023/12/03 12:29:56;;;;;;;11.35;9.20;;;;;;;;;;5091052;28;20210;-62
2023/12/03 12:32:22;;;;;;;12.10;10.00;;;;;;;;;;5089156;28;20218;-62
2023/12/03 12:34:48;;;;;;;11.07;9.27;;;;;;;;;;5091005;28;20734;-61
2023/12/03 12:37:15;;;;;;;12.63;10.45;;;;;;;;;;5091253;28;20204;-62
2023/12/03 12:39:41;;;;;;;11.80;9.57;;;;;;;;;;5090658;28;20660;-61
2023/12/03 12:42:22;;;;;;;11.15;9.90;;;;;;;;;;5090271;28;20203;-60
2023/12/03 12:44:48;;;;;;;11.15;9.80;;;;;;;;;;5091224;28;20675;-64
2023/12/03 12:47:14;;;;;;;10.50;9.20;;;;;;;;;;5091272;28;20207;-62
2023/12/03 12:49:50;;;;;;;13.05;10.65;;;;;;;;;;5091881;28;20286;-63
2023/12/03 12:52:17;;;;;;;12.52;11.20;;;;;;;;;;5091465;28;20497;-71
2023/12/03 12:54:44;;;;;;;10.73;9.63;;;;;;;;;;5092685;28;20272;-71
2023/12/03 12:57:11;;;;;;;13.85;9.85;;;;;;;;;;5092469;28;20286;-71
2023/12/03 12:59:38;;;;;;;11.70;9.20;;;;;;;;;;5093136;28;20294;-71
2023/12/03 13:02:04;;;;;;;11.98;10.13;;;;;;;;;;5094593;28;20272;-71
2023/12/03 13:04:30;;;;;;;11.93;9.82;;;;;;;;;;5091436;28;20772;-71
2023/12/03 13:06:56;;;;;;;11.63;9.85;;;;;;;;;;5090856;28;20875;-72
2023/12/03 13:09:22;;;;;;;13.90;10.70;;;;;;;;;;5090806;28;20650;-72
2023/12/03 13:11:49;;;;;;;13.27;10.52;;;;;;;;;;5090996;28;20207;-72
2023/12/03 13:14:16;;;;;;;14.10;10.77;;;;;;;;;;5090978;28;20195;-72
2023/12/03 13:16:43;;;;;;;12.25;10.35;;;;;;;;;;5091095;28;20195;-71
2023/12/03 13:19:09;;;;;;;15.40;11.13;;;;;;;;;;5091462;28;20203;-71
2023/12/03 13:21:35;;;;;;;18.38;10.85;;;;;;;;;;5093067;28;20199;-72
2023/12/03 13:24:02;;;;;;;14.68;11.35;;;;;;;;;;5093304;28;20245;-71
2023/12/03 13:26:28;;;;;;;13.25;11.82;;;;;;;;;;5093227;28;20219;-71
2023/12/03 13:28:54;;;;;;;16.08;11.55;;;;;;;;;;5093180;28;20243;-70
2023/12/03 13:31:22;;;;;;;13.25;10.80;;;;;;;;;;5092709;28;20340;-71
2023/12/03 13:33:49;;;;;;;13.13;11.27;;;;;;;;;;5092665;28;20292;-71
2023/12/03 13:36:15;;;;;;;17.65;12.07;;;;;;;;;;5093071;28;20223;-71
2023/12/03 13:38:41;;;;;;;23.23;12.00;;;;;;;;;;5092987;28;20249;-71
2023/12/03 13:41:08;;;;;;;15.55;11.32;;;;;;;;;;5092185;28;20674;-70
2023/12/03 13:43:34;;;;;;;14.40;11.52;;;;;;;;;;5092547;28;20223;-71
2023/12/03 13:46:00;;;;;;;13.45;11.20;;;;;;;;;;5092416;28;20311;-71
2023/12/03 13:48:28;;;;;;;16.48;10.75;;;;;;;;;;5092488;28;20262;-71
2023/12/03 13:50:54;;;;;;;16.23;12.25;;;;;;;;;;5092459;28;20199;-71
2023/12/03 13:53:20;;;;;;;17.77;11.73;;;;;;;;;;5092429;28;20217;-71
2023/12/03 13:55:47;;;;;;;16.10;12.48;;;;;;;;;;5091796;28;20253;-70
2023/12/03 13:58:13;;;;;;;17.17;12.32;;;;;;;;;;5091871;28;20217;-70
2023/12/03 14:00:39;;;;;;;15.65;12.13;;;;;;;;;;5092092;28;20660;-71
2023/12/03 14:03:06;;;;;;;16.17;11.95;;;;;;;;;;5091275;28;20237;-70
2023/12/03 14:05:33;;;;;;;15.45;11.75;;;;;;;;;;5092406;28;20242;-71
2023/12/03 14:07:59;;;;;;;18.52;12.73;;;;;;;;;;5091800;28;20660;-71
2023/12/03 14:10:29;;;;;;;20.67;12.82;;;;;;;;;;5091893;28;20222;-71
2023/12/03 14:12:55;;;;;;;18.33;13.05;;;;;;;;;;5092071;28;20196;-70
2023/12/03 14:15:21;;;;;;;16.60;12.88;;;;;;;;;;5091368;28;20215;-70
2023/12/03 14:17:48;;;;;;;20.55;13.05;;;;;;;;;;5091446;28;20467;-71
2023/12/03 14:20:14;;;;;;;19.70;14.48;;;;;;;;;;5091978;28;20294;-71
2023/12/03 14:22:42;;;;;;;19.38;13.10;;;;;;;;;;5091735;28;20202;-71
2023/12/03 14:25:09;;;;;;;21.50;14.27;;;;;;;;;;5091188;28;20246;-71